Weather observations for the past three days for
Algona
Metric (Imperial)
Date Time (cdt) Wind (kph) Vis. (km) Weather Sky Cond. Temperature (ºC) Relative Humidity Wind Chill (°C) Heat Index (°C) Pressure Precipitation (cm)
Air Dwpt 6 hour altimeter (cm) sea level (mb) 1 hr 3 hr 6 hr
Max. Min.
04 06:55 SW 19 16.09 A Few Clouds FEW100 10 3 62% 8 75.01 0.0
04 06:35 SW 17 16.09 Fair CLR 10 2 58% 8 75.01 0.0
04 06:15 SW 19 16.09 A Few Clouds FEW100 10 2 58% 8 75.01 0.0
04 05:55 SW 19 16.09 Fair CLR 9 2 62% 7 75.03 0.0
04 05:35 SW 19 0.00 Fair CLR 9 2 62% 7 75.06 0.0
04 05:15 SW 20 16.09 Fair CLR 10 1 54% 8 75.06 0.0
04 04:55 SW 20 G 31 16.09 Fair CLR 10 1 54% 8 75.08 0.0
04 04:35 SW 22 16.09 Fair CLR 10 1 54% 7 75.08 0.0
04 04:15 SW 22 16.09 Fair CLR 9 1 58% 6 75.11 0.0
04 03:55 SW 19 16.09 Fair CLR 9 1 58% 7 75.13 0.0
04 03:35 SW 17 16.09 Fair CLR 10 1 54% 8 75.16 0.0
04 03:15 SW 19 16.09 Fair CLR 10 1 54% 8 75.16 0.0
04 02:55 SW 17 16.09 Fair CLR 9 1 58% 7 75.16 0.0
04 02:35 SW 19 16.09 Fair CLR 10 1 54% 8 75.18 0.0
04 02:15 SW 19 16.09 Fair CLR 10 1 54% 8 75.23 0.0
04 01:55 SW 20 16.09 Fair CLR 11 1 50% 75.23 0.0
04 01:35 S 20 16.09 Fair CLR 10 1 54% 8 75.26 0.0
04 01:15 SW 20 16.09 Fair CLR 11 1 50% 75.29 0.0
04 00:55 SW 17 16.09 Fair CLR 11 1 50% 75.29 0.0
04 00:35 S 17 16.09 Fair CLR 10 1 54% 8 75.31 0.0
04 00:15 SW 17 16.09 Fair CLR 11 1 50% 75.34 0.0
03 23:55 SW 9 16.09 Fair CLR 11 1 50% 75.36 0.0
03 23:35 SW 15 16.09 Fair CLR 12 0 44% 75.39 0.0
03 23:15 W 13 16.09 Fair CLR 12 0 44% 75.41 0.0
03 22:55 W 13 16.09 Fair CLR 12 0 44% 75.44 0.0
03 22:35 W 11 16.09 Fair CLR 12 0 44% 75.46 0.0
03 22:15 SW 13 16.09 Fair CLR 12 0 44% 75.46 0.0
03 21:55 W 11 16.09 Fair CLR 13 0 41% 75.46 0.0
03 21:35 W 17 16.09 Fair CLR 14 -1 36% 75.46 0.0
03 21:15 W 13 16.09 Fair CLR 14 -1 36% 75.46 0.0
03 20:55 W 11 16.09 Fair CLR 15 -1 34% 75.46 0.0
03 20:35 W 13 16.09 Fair CLR 16 -1 31% 75.46 0.0
03 20:15 W 13 14.48 Fair CLR 18 0 30% 75.46 0.0
03 19:55 W 13 16.09 Fair CLR 20 1 28% 75.46 0.0
03 19:35 W 19 8.05 Fair with Haze CLR 20 1 28% 75.46 0.0
03 19:15 W 13 G 26 11.27 Fair CLR 21 0 25% 75.46 0.0
03 18:55 W 19 16.09 Fair CLR 22 0 23% 75.49 0.0
03 18:35 NW 20 G 30 16.09 Fair CLR 22 0 23% 75.49 0.0
03 18:15 NW 13 G 30 16.09 Fair CLR 22 -2 20% 75.51 0.0
03 17:35 NW 24 G 35 16.09 Fair CLR 22 -2 20% 75.54 0.0
03 17:15 NW 19 G 30 16.09 Fair CLR 22 0 23% 75.54 0.0
03 16:55 NW 24 16.09 Fair CLR 22 -1 22% 75.54 0.0
03 16:35 NW 24 G 43 16.09 Fair CLR 22 -1 22% 75.54 0.0
03 16:15 NW 20 G 31 16.09 Fair CLR 22 0 23% 75.57 0.0
03 15:55 NW 31 G 43 16.09 Fair CLR 22 0 23% 75.57 0.0
03 15:35 NW 22 16.09 Fair CLR 22 0 23% 75.59 0.0
03 15:15 NW 24 G 39 16.09 Fair CLR 21 0 25% 75.59 0.0
03 14:55 N 28 G 50 16.09 Fair CLR 21 0 25% 75.62 0.0
03 14:35 N 26 G 44 16.09 Fair CLR 21 0 25% 75.62 0.0
03 14:15 N 28 G 48 16.09 Fair CLR 21 0 25% 75.62 0.0
03 13:55 N 39 G 50 16.09 Fair and Breezy CLR 21 0 25% 75.59 0.0
03 13:35 N 35 G 48 16.09 Fair and Breezy CLR 21 0 25% 75.62 0.0
03 13:15 NW 31 G 44 16.09 Fair CLR 21 0 25% 75.64 0.0
03 12:55 NW 35 G 48 16.09 Fair and Breezy CLR 20 1 28% 75.64 0.0
03 12:35 N 26 G 54 14.48 Fair CLR 20 1 28% 75.64 0.0
03 12:15 N 28 G 46 14.48 Fair CLR 20 1 28% 75.67 0.0
03 11:55 NW 39 G 56 14.48 Fair and Breezy CLR 20 1 28% 75.64 0.0
03 11:35 N 39 G 54 16.09 Fair and Breezy CLR 20 2 30% 75.64 0.0
03 11:15 N 39 G 50 16.09 Fair and Breezy CLR 19 2 32% 75.64 0.0
03 10:55 N 33 G 46 16.09 Fair and Breezy CLR 18 2 34% 75.64 0.0
03 10:35 NW 41 G 54 16.09 Fair and Breezy CLR 18 2 34% 75.64 0.0
03 10:15 N 31 G 52 16.09 Fair CLR 17 2 37% 75.64 0.0
03 09:55 N 37 G 50 16.09 Fair and Breezy CLR 17 2 37% 75.62 0.0
03 09:35 N 37 G 52 16.09 Fair and Breezy CLR 16 2 39% 75.62 0.0
03 09:15 NW 35 G 44 16.09 Fair and Breezy CLR 15 2 42% 75.62 0.0
03 08:55 NW 30 G 41 16.09 Fair CLR 14 2 44% 75.59 0.0
03 08:35 NW 26 G 39 16.09 Fair CLR 14 2 44% 75.59 0.0
03 08:15 NW 24 G 35 16.09 Fair CLR 14 2 44% 75.57 0.0
03 07:55 NW 19 16.09 Fair CLR 12 2 51% 75.57 0.0
03 07:35 W 22 16.09 Fair CLR 11 2 54% 75.54 0.0
03 07:15 W 19 16.09 Fair CLR 10 1 54% 8 75.51 0.0
03 06:55 SW 15 16.09 Fair CLR 9 0 54% 7 75.51 0.0
03 06:35 SW 19 16.09 Fair CLR 9 0 54% 7 75.49 0.0
03 06:15 SW 19 16.09 Fair CLR 9 0 54% 7 75.51 0.0
03 05:55 SW 20 G 31 16.09 Fair CLR 10 0 50% 8 75.49 0.0
03 05:35 SW 26 G 35 16.09 Fair CLR 11 0 47% 75.49 0.0
03 05:15 SW 24 G 33 16.09 Fair CLR 12 0 44% 75.51 0.0
03 04:55 SW 33 16.09 Fair and Breezy CLR 13 0 41% 75.51 0.0
03 04:35 SW 28 16.09 Fair CLR 13 0 41% 75.51 0.0
03 04:15 SW 22 16.09 Fair CLR 11 0 47% 75.54 0.0
03 03:55 S 20 16.09 Fair CLR 11 0 47% 75.54 0.0
03 03:35 S 22 16.09 Fair CLR 11 0 47% 75.54 0.0
03 03:15 S 26 16.09 Mostly Cloudy BKN100 11 0 47% 75.57 0.0
03 02:55 S 24 16.09 Mostly Cloudy BKN100 BKN120 11 0 47% 75.59 0.0
03 02:35 S 30 16.09 Mostly Cloudy BKN100 11 0 47% 75.62 0.0
03 02:15 S 30 G 41 16.09 Partly Cloudy SCT100 12 0 44% 75.64 0.0
03 01:55 S 28 G 39 16.09 Partly Cloudy FEW090 SCT120 12 -1 41% 75.67 0.0
03 01:35 S 31 G 43 16.09 Overcast FEW065 BKN075 OVC090 13 -1 38% 75.72 0.0
03 01:15 S 33 G 43 16.09 Overcast and Breezy FEW060 FEW075 OVC095 13 -1 38% 75.74 0.0
03 00:55 S 30 16.09 Overcast OVC095 13 -1 38% 75.74 0.0
03 00:35 S 26 16.09 Mostly Cloudy FEW080 BKN095 12 -1 41% 75.74 0.0
03 00:15 S 22 16.09 Mostly Cloudy BKN100 12 -1 41% 75.79 0.0
02 23:55 S 22 16.09 Overcast OVC095 13 -1 38% 75.82 0.0
02 23:35 S 22 16.09 Overcast OVC090 13 -1 38% 75.82 0.0
02 23:15 S 28 G 37 16.09 Overcast OVC100 13 -1 38% 75.82 0.0
02 22:55 S 24 16.09 Mostly Cloudy BKN100 13 -1 38% 75.84 0.0
02 22:35 S 22 16.09 A Few Clouds FEW100 13 -1 38% 75.87 0.0
02 22:15 S 24 16.09 Fair CLR 14 -1 36% 75.87 0.0
02 21:55 S 22 16.09 A Few Clouds FEW110 14 -1 36% 75.9 0.0
02 21:35 S 19 16.09 Mostly Cloudy BKN110 14 -1 36% 75.92 0.0
02 21:15 S 13 16.09 Overcast SCT085 OVC110 15 -1 34% 75.95 0.0
02 20:55 S 13 16.09 Overcast BKN090 OVC110 15 -1 34% 75.95 0.0
02 20:35 SW 15 16.09 Mostly Cloudy BKN110 16 -2 29% 75.95 0.0
02 20:15 SW 19 16.09 Partly Cloudy FEW090 SCT110 17 -2 27% 75.95 0.0
02 19:55 SW 22 16.09 A Few Clouds FEW110 17 -2 27% 75.95 0.0
02 19:35 SW 22 16.09 Partly Cloudy SCT120 18 -2 26% 75.95 0.0
02 19:15 SW 22 16.09 Partly Cloudy SCT120 18 -2 26% 75.97 0.0
02 18:55 SW 19 G 31 16.09 Fair CLR 18 -2 26% 76 0.0
02 18:35 SW 24 G 35 16.09 Fair CLR 18 -2 26% 76.02 0.0
02 18:15 SW 22 16.09 Fair CLR 18 -2 26% 76.02 0.0
02 17:55 SW 15 G 30 16.09 Fair CLR 18 -1 28% 76.02 0.0
02 17:35 W 24 16.09 Fair CLR 18 -2 26% 76.05 0.0
02 17:15 SW 19 G 30 16.09 Fair CLR 18 -1 28% 76.07 0.0
02 16:55 W 19 16.09 Fair CLR 18 -1 28% 76.1 0.0
02 16:35 W 17 G 31 16.09 Fair CLR 18 -2 26% 76.1 0.0
02 16:15 SW 11 G 26 16.09 Fair CLR 18 -1 28% 76.12 0.0
02 15:55 SW 13 G 26 16.09 Fair CLR 18 -1 28% 76.15 0.0
02 15:35 W 17 G 33 16.09 Fair CLR 18 -2 26% 76.17 0.0
02 15:15 Vrbl 11 G 22 16.09 Fair CLR 17 -1 30% 76.2 0.0
02 14:35 W 24 G 35 16.09 Fair CLR 17 -2 27% 76.25 0.0
02 14:15 W 13 G 35 16.09 Fair CLR 17 -2 27% 76.28 0.0
02 13:55 SW 17 16.09 Fair CLR 16 -4 25% 76.3 0.0
02 13:35 W 11 G 28 16.09 Fair CLR 15 -4 27% 76.33 0.0
02 13:15 NW 13 G 31 16.09 Fair CLR 15 -3 29% 76.35 0.0
02 12:55 NW 17 G 28 16.09 Fair CLR 15 -4 27% 76.38 0.0
02 12:35 W 24 16.09 Fair CLR 15 -3 29% 76.4 0.0
02 12:15 NW 20 G 31 16.09 Fair CLR 14 -4 29% 76.43 0.0
02 11:55 W 20 16.09 Fair CLR 14 -3 31% 76.43 0.0
02 11:35 W 15 G 26 16.09 Fair CLR 13 -3 33% 76.45 0.0
02 11:15 W 19 14.48 Fair CLR 13 -3 33% 76.45 0.0
02 10:55 Vrbl 6 G 24 16.09 Fair CLR 12 -3 35% 76.48 0.0
02 10:35 W 17 16.09 Fair CLR 12 -3 35% 76.48 0.0
02 10:15 W 13 G 22 16.09 Fair CLR 12 -3 35% 76.48 0.0
02 09:55 W 15 G 28 16.09 Fair CLR 11 -3 38% 76.5 0.0
02 09:35 W 15 16.09 Fair CLR 11 -2 41% 76.5 0.0
02 09:15 W 20 16.09 Fair CLR 10 -2 43% 8 76.5 0.0
02 08:55 W 19 16.09 Fair CLR 9 -2 46% 7 76.5 0.0
02 08:35 W 20 16.09 Fair CLR 9 -1 50% 6 76.53 0.0
02 08:15 W 17 16.09 Fair CLR 7 -1 57% 4 76.5 0.0
02 07:55 W 11 16.09 Fair CLR 6 0 66% 4 76.53 0.0
02 07:35 W 11 16.09 Fair CLR 4 0 75% 2 76.5 0.0
02 07:15 W 11 16.09 Fair CLR 3 -1 75% 0 76.5 0.0
02 06:55 W 9 16.09 Fair CLR 1 -2 81% -2 76.48 0.0
02 06:35 W 7 16.09 Fair CLR 0 -3 80% -2 76.48 0.0
02 06:15 W 9 16.09 Fair CLR -1 -3 86% -4 76.48 0.0
02 05:55 W 7 16.09 Fair CLR -1 -4 80% -3 76.48 0.0
02 05:35 W 7 16.09 Fair CLR 0 -4 75% -2 76.48 0.0
02 05:15 SW 6 16.09 Fair CLR 1 -4 70% 76.48 0.0
02 04:55 W 6 16.09 Fair CLR 0 -4 75% 76.48 0.0
02 04:35 W 6 16.09 Fair CLR 1 -4 70% 76.48 0.0
02 04:15 Calm 16.09 Fair CLR 1 -4 70% 76.48 0.0
02 03:55 W 6 16.09 Fair CLR 1 -3 75% 76.45 0.0
02 03:35 W 6 16.09 Fair CLR 1 -4 70% 76.45 0.0
02 03:15 Calm 16.09 Fair CLR 1 -4 70% 76.45 0.0
02 02:55 W 6 16.09 Fair CLR 2 -4 65% 76.45 0.0
02 02:35 Calm 16.09 Fair CLR 2 -3 70% 76.48 0.0
02 02:15 W 6 16.09 Fair CLR 2 -4 65% 76.48 0.0
02 01:55 W 6 16.09 Fair CLR 2 -4 65% 76.48 0.0
02 01:35 Calm 16.09 Fair CLR 1 -3 75% 76.48 0.0
02 01:15 W 7 16.09 Fair CLR 2 -3 70% 0 76.48 0.0
02 00:55 NW 9 16.09 Fair CLR 2 -3 70% -0 76.48 0.0
02 00:35 NW 7 16.09 Fair CLR 2 -3 70% 0 76.48 0.0
02 00:15 NW 7 16.09 Fair CLR 3 -3 65% 1 76.48 0.0
01 23:55 NW 6 16.09 Fair CLR 3 -3 65% 76.45 0.0
01 23:35 NW 7 16.09 Fair CLR 4 -3 61% 2 76.48 0.0
01 23:15 NW 7 16.09 Fair CLR 4 -3 61% 2 76.48 0.0
01 22:55 NW 7 16.09 Fair CLR 4 -4 56% 2 76.48 0.0
01 22:35 Calm 16.09 Fair CLR 4 -4 56% 76.45 0.0
01 22:15 N 7 16.09 Fair CLR 6 -4 49% 5 76.45 0.0
01 21:55 N 11 16.09 Fair CLR 4 -4 56% 2 76.45 0.0
01 21:35 N 13 16.09 Fair CLR 6 -4 49% 4 76.45 0.0
01 21:15 N 11 16.09 Fair CLR 6 -4 49% 4 76.43 0.0
01 20:35 N 11 16.09 A Few Clouds FEW080 7 -3 49% 5 76.4 0.0
01 20:15 N 9 16.09 Mostly Cloudy BKN080 9 -4 40% 8 76.38 0.0
01 19:55 N 17 16.09 Mostly Cloudy BKN080 10 -4 37% 8 76.38 0.0
01 19:35 N 17 G 28 16.09 Overcast OVC080 11 -4 35% 76.35 0.0
01 19:15 N 19 16.09 Mostly Cloudy BKN080 BKN090 11 -5 32% 76.35 0.0
01 18:55 N 19 16.09 A Few Clouds FEW080 11 -4 35% 76.35 0.0
01 18:35 N 13 16.09 A Few Clouds FEW085 10 -5 35% 8 76.35 0.0
01 18:15 N 15 0.00 Mostly Cloudy BKN085 11 -5 32% 76.35 0.0
01 17:55 N 17 G 26 16.09 Fair CLR 11 -4 35% 76.33 0.0
01 17:35 N 19 16.09 Fair CLR 11 -4 35% 76.33 0.0
01 17:15 N 9 G 24 16.09 A Few Clouds FEW065 FEW080 11 -4 35% 76.33 0.0
01 16:55 N 15 16.09 Mostly Cloudy BKN065 BKN075 11 -4 35% 76.33 0.0
01 16:35 N 22 16.09 A Few Clouds FEW065 FEW085 11 -3 38% 76.33 0.0
01 16:15 NW 17 16.09 A Few Clouds FEW060 FEW070 11 -3 38% 76.33 0.0
01 15:55 N 17 16.09 A Few Clouds FEW060 FEW070 11 -3 38% 76.33 0.0
01 15:35 NE 15 G 28 14.48 Fair CLR 11 -3 38% 76.35 0.0
01 15:15 N 17 G 28 16.09 Fair CLR 11 -3 38% 76.35 0.0
01 14:55 NW 15 16.09 A Few Clouds FEW065 FEW080 10 -3 40% 8 76.35 0.0
01 14:35 N 20 G 31 16.09 Partly Cloudy FEW060 SCT080 10 -3 40% 8 76.35 0.0
01 14:15 N 15 G 30 16.09 Partly Cloudy FEW060 SCT080 10 -2 43% 8 76.35 0.0
01 13:55 NW 24 16.09 Fair CLR 10 -2 43% 7 76.35 0.0
01 13:35 N 24 16.09 Fair CLR 10 -1 47% 7 76.33 0.0
01 13:15 NW 17 G 30 16.09 Fair CLR 10 -2 43% 8 76.33 0.0
01 12:55 N 20 G 31 16.09 A Few Clouds FEW065 11 -1 44% 76.33 0.0
01 12:35 N 15 G 30 16.09 A Few Clouds FEW043 FEW050 FEW060 11 -1 44% 76.33 0.0
01 12:15 N 20 16.09 Partly Cloudy FEW042 FEW050 SCT060 10 1 54% 8 76.33 0.0
01 11:55 N 17 16.09 Partly Cloudy FEW039 FEW048 SCT070 10 1 54% 8 76.33 0.0
01 11:35 N 13 G 28 16.09 Partly Cloudy SCT038 SCT055 SCT065 9 0 54% 7 76.33 0.0
01 11:15 N 22 16.09 Partly Cloudy FEW035 FEW046 SCT060 9 1 58% 6 76.33 0.0
01 10:55 N 19 16.09 Mostly Cloudy FEW037 FEW046 BKN060 9 0 54% 7 76.33 0.0
01 10:35 N 20 16.09 Partly Cloudy FEW033 SCT038 SCT055 10 1 54% 8 76.3 0.0
01 10:15 N 17 14.48 A Few Clouds FEW030 9 1 58% 7 76.33 0.0
01 09:55 N 17 9.66 A Few Clouds with Haze FEW030 9 3 66% 7 76.3 0.0
01 09:35 NE 17 16.09 Fair CLR 9 3 66% 7 76.3 0.0
01 09:15 NE 13 0.00 Fair CLR 8 4 76% 6 76.3 0.0
01 08:55 N 19 16.09 Fair CLR 7 6 93% 4 76.3 0.0
01 08:35 N 17 16.09 Partly Cloudy SCT075 7 7 100% 4 76.3 0.0
01 08:15 N 17 16.09 Partly Cloudy SCT075 6 6 100% 3 76.3 0.0
01 07:55 N 13 16.09 Fair CLR 6 6 100% 4 76.3 0.0
01 07:35 N 11 14.48 Fair CLR 5 5 100% 3 76.28 0.0
Date Time (cdt) Wind (kph) Vis. (km) Weather Sky Cond. Air Dwpt Max. Min. Relative Humidity Wind Chill (°C) Heat Index (°C) altimeter (cm) sea level (mb) 1 hr 3 hr 6 hr
6 hour
Temperature (ºC) Pressure Precipitation (cm)